createdAt,value
2023-04-08T00:04:17.757Z,1.60
2023-04-08T00:09:12.684Z,1.80
2023-04-08T00:14:06.095Z,1.90
2023-04-08T00:19:00.643Z,2.00
2023-04-08T00:23:54.009Z,1.90
2023-04-08T00:28:49.131Z,2.00
2023-04-08T00:33:42.881Z,1.77
2023-04-08T00:38:36.252Z,1.90
2023-04-08T00:43:29.740Z,1.80
2023-04-08T00:48:24.575Z,1.80
2023-04-08T00:53:20.696Z,1.67
2023-04-08T00:58:15.622Z,1.73
2023-04-08T01:03:18.178Z,1.57
2023-04-08T01:08:13.892Z,2.00
2023-04-08T01:13:11.995Z,2.30
2023-04-08T01:18:12.615Z,2.03
2023-04-08T01:23:22.073Z,2.17
2023-04-08T01:33:21.517Z,2.23
2023-04-08T01:38:21.070Z,2.23
2023-04-08T01:43:19.101Z,2.27
2023-04-08T01:48:16.468Z,2.27
2023-04-08T01:53:13.362Z,3.03
2023-04-08T01:58:12.389Z,2.60
2023-04-08T02:03:08.392Z,2.90
2023-04-08T02:08:05.312Z,2.90
2023-04-08T02:12:59.136Z,2.97
2023-04-08T02:18:02.342Z,3.00
2023-04-08T02:23:09.377Z,3.00
2023-04-08T02:28:07.324Z,3.00
2023-04-08T02:33:05.219Z,3.20
2023-04-08T02:37:58.731Z,3.40
2023-04-08T02:42:53.529Z,3.50
2023-04-08T02:47:47.159Z,3.90
2023-04-08T02:52:40.916Z,3.70
2023-04-08T02:57:34.298Z,3.77
2023-04-08T03:02:29.067Z,3.67
2023-04-08T03:07:22.695Z,3.60
2023-04-08T03:12:16.058Z,3.63
2023-04-08T03:17:09.439Z,3.63
2023-04-08T03:22:06.587Z,3.60
2023-04-08T03:27:00.019Z,3.50
2023-04-08T03:31:53.486Z,3.90
2023-04-08T03:36:46.851Z,4.00
2023-04-08T03:41:41.511Z,3.80
2023-04-08T03:46:34.948Z,3.67
2023-04-08T03:51:28.737Z,3.37
2023-04-08T03:56:22.110Z,3.40
2023-04-08T04:01:23.008Z,4.40
2023-04-08T04:06:16.461Z,4.30
2023-04-08T04:11:10.381Z,4.57
2023-04-08T04:16:03.805Z,4.37
2023-04-08T04:20:58.562Z,4.37
2023-04-08T04:26:02.516Z,4.70
2023-04-08T04:30:57.598Z,4.93
2023-04-08T04:35:51.151Z,4.90
2023-04-08T04:40:46.115Z,4.27
2023-04-08T04:45:40.502Z,5.10
2023-04-08T04:50:33.924Z,5.10
2023-04-08T04:55:27.404Z,4.60
2023-04-08T05:00:25.421Z,5.03
2023-04-08T05:05:19.040Z,5.43
2023-04-08T05:10:12.785Z,5.50
2023-04-08T05:15:07.775Z,5.50
2023-04-08T05:20:02.649Z,5.80
2023-04-08T05:24:56.050Z,5.73
2023-04-08T05:29:49.408Z,5.57
2023-04-08T05:34:42.679Z,6.27
2023-04-08T05:39:37.613Z,5.97
2023-04-08T05:44:31.048Z,6.00
2023-04-08T05:49:24.407Z,6.03
2023-04-08T05:54:17.858Z,7.97
2023-04-08T05:59:12.622Z,8.80
2023-04-08T06:04:06.624Z,8.77
2023-04-08T06:09:00.455Z,9.27
2023-04-08T06:13:53.874Z,7.10
2023-04-08T06:18:49.186Z,6.60
2023-04-08T06:23:43.001Z,6.80
2023-04-08T06:28:36.405Z,7.27
2023-04-08T06:33:29.780Z,7.57
2023-04-08T06:38:24.560Z,8.00
2023-04-08T06:43:17.904Z,7.47
2023-04-08T06:48:12.179Z,7.60
2023-04-08T06:53:05.531Z,7.70
2023-04-08T06:58:02.059Z,7.57
2023-04-08T07:02:55.744Z,7.70
2023-04-08T07:07:49.260Z,7.43
2023-04-08T07:12:42.638Z,7.87
2023-04-08T07:17:37.915Z,7.93
2023-04-08T07:22:31.321Z,7.87
2023-04-08T07:27:24.710Z,8.43
2023-04-08T07:37:22.355Z,8.30
2023-04-08T07:42:15.715Z,8.40
2023-04-08T07:47:10.389Z,8.40
2023-04-08T07:52:03.796Z,8.20
2023-04-08T07:56:59.968Z,9.20
2023-04-08T08:01:53.631Z,8.67
2023-04-08T08:06:47.904Z,9.10
2023-04-08T08:11:41.546Z,8.90
2023-04-08T08:21:43.746Z,9.47
2023-04-08T08:36:59.645Z,9.20
2023-04-08T08:41:54.288Z,9.43
2023-04-08T08:46:49.652Z,9.50
2023-04-08T08:51:52.446Z,9.70
2023-04-08T08:56:51.447Z,9.47
2023-04-08T09:01:45.106Z,9.27
2023-04-08T09:16:54.336Z,10.23
2023-04-08T09:21:47.762Z,10.77
2023-04-08T09:26:41.782Z,11.50
2023-04-08T09:31:38.356Z,10.83
2023-04-08T09:36:37.451Z,10.77
2023-04-08T09:41:35.408Z,10.30
2023-04-08T09:46:42.095Z,12.50
2023-04-08T09:51:48.341Z,12.43
2023-04-08T09:56:48.935Z,11.23
2023-04-08T10:01:55.388Z,10.90
2023-04-08T10:07:02.737Z,11.17
2023-04-08T10:11:57.071Z,11.37
2023-04-08T10:17:27.411Z,10.60
2023-04-08T10:22:50.381Z,10.47
2023-04-08T10:27:46.944Z,10.30
2023-04-08T10:32:42.425Z,9.10
2023-04-08T10:37:35.833Z,12.50
2023-04-08T10:42:30.979Z,9.97
2023-04-08T10:47:28.686Z,11.43
2023-04-08T10:52:23.519Z,10.87
2023-04-08T10:57:18.754Z,10.33
2023-04-08T11:02:16.871Z,10.80
2023-04-08T11:12:06.488Z,9.63
2023-04-08T11:17:01.553Z,9.90
2023-04-08T11:21:56.335Z,9.03
2023-04-08T11:47:48.593Z,7.63
2023-04-08T11:52:48.451Z,8.00
2023-04-08T12:07:58.080Z,9.20
2023-04-08T12:12:51.498Z,8.80
2023-04-08T12:17:46.602Z,9.83
2023-04-08T12:22:41.612Z,9.90
2023-04-08T12:48:04.368Z,9.53
2023-04-08T13:08:20.216Z,10.40
2023-04-08T13:19:12.039Z,11.00
2023-04-08T13:29:13.232Z,10.23
2023-04-08T13:40:01.672Z,13.70
2023-04-08T13:44:56.518Z,13.43
2023-04-08T13:49:54.672Z,14.33
2023-04-08T13:55:14.779Z,13.13
2023-04-08T14:00:11.694Z,12.93
2023-04-08T14:05:05.561Z,12.33
2023-04-08T14:09:58.921Z,10.70
2023-04-08T14:14:52.335Z,10.00
2023-04-08T14:19:47.142Z,11.67
2023-04-08T14:24:40.421Z,11.67
2023-04-08T14:29:33.783Z,10.70
2023-04-08T14:34:27.361Z,9.07
2023-04-08T14:44:24.106Z,8.67
2023-04-08T14:49:17.520Z,8.90
2023-04-08T14:54:10.817Z,8.90
2023-04-08T14:59:04.239Z,8.10
2023-04-08T15:03:59.025Z,7.93
2023-04-08T15:08:52.750Z,8.47
2023-04-08T15:13:46.281Z,8.37
2023-04-08T15:18:42.359Z,7.70
2023-04-08T15:23:41.885Z,8.63
2023-04-08T15:28:35.245Z,7.90
2023-04-08T15:33:28.612Z,8.80
2023-04-08T15:38:22.004Z,9.10
2023-04-08T15:43:16.718Z,8.70
2023-04-08T15:48:11.632Z,8.73
2023-04-08T15:53:05.031Z,8.03
2023-04-08T15:57:58.536Z,8.13
2023-04-08T16:02:53.367Z,7.87
2023-04-08T16:07:46.915Z,7.83
2023-04-08T16:12:41.124Z,7.87
2023-04-08T16:17:37.443Z,7.70
2023-04-08T16:22:32.212Z,7.33
2023-04-08T16:27:25.708Z,8.00
2023-04-08T16:32:19.124Z,8.17
2023-04-08T16:37:14.824Z,7.30
2023-04-08T16:42:10.199Z,7.37
2023-04-08T16:47:06.468Z,7.30
2023-04-08T16:52:01.442Z,8.17
2023-04-08T16:56:54.838Z,7.43
2023-04-08T17:01:49.578Z,8.07
2023-04-08T17:06:43.121Z,7.90
2023-04-08T17:11:36.669Z,7.57
2023-04-08T17:16:30.604Z,7.50
2023-04-08T17:21:26.162Z,7.33
2023-04-08T17:26:19.638Z,6.40
2023-04-08T17:51:53.677Z,7.40
2023-04-08T17:56:49.066Z,6.80
2023-04-08T18:01:43.254Z,6.70
2023-04-08T18:06:38.371Z,6.63
2023-04-08T18:11:33.229Z,7.50
2023-04-08T18:16:26.641Z,7.47
2023-04-08T18:21:21.189Z,7.60
2023-04-08T18:26:16.646Z,8.23
2023-04-08T18:31:11.403Z,7.27
2023-04-08T18:36:09.195Z,10.50
2023-04-08T18:41:02.625Z,8.57
2023-04-08T18:50:57.724Z,8.60
2023-04-08T18:55:51.301Z,8.67
2023-04-08T19:00:44.692Z,8.47
2023-04-08T19:10:46.417Z,10.20
2023-04-08T19:15:41.126Z,9.30
2023-04-08T19:20:34.657Z,8.80
2023-04-08T19:25:28.017Z,9.27
2023-04-08T19:30:24.399Z,11.53
2023-04-08T19:35:17.823Z,11.80
2023-04-08T19:40:12.958Z,11.30
2023-04-08T19:45:07.472Z,11.87
2023-04-08T19:50:02.317Z,13.57
2023-04-08T19:54:55.781Z,14.73
2023-04-08T19:59:49.867Z,14.70
2023-04-08T20:04:43.320Z,14.07
2023-04-08T20:09:39.890Z,13.17
2023-04-08T20:14:35.769Z,12.53
2023-04-08T20:19:29.390Z,13.93
2023-04-08T20:24:22.925Z,12.47
2023-04-08T20:29:17.755Z,13.27
2023-04-08T20:34:11.115Z,12.60
2023-04-08T20:46:12.730Z,14.70
2023-04-08T20:51:06.196Z,18.93
2023-04-08T20:55:59.804Z,15.33
2023-04-08T21:00:53.258Z,13.77
2023-04-08T21:05:49.449Z,12.50
2023-04-08T21:10:42.789Z,12.93
2023-04-08T21:15:36.086Z,12.13
2023-04-08T21:20:29.580Z,12.20
2023-04-08T21:25:24.920Z,12.97
2023-04-08T21:35:25.258Z,13.73
2023-04-08T21:40:19.283Z,13.00
2023-04-08T21:45:15.440Z,12.70
2023-04-08T21:50:09.925Z,13.50
2023-04-08T21:55:03.838Z,13.87
2023-04-08T21:59:57.220Z,12.73
2023-04-08T22:04:52.289Z,13.73
2023-04-08T22:09:47.639Z,13.83
2023-04-08T22:14:41.019Z,14.03
2023-04-08T22:19:34.339Z,12.97
2023-04-08T22:29:36.381Z,12.63
2023-04-08T22:34:29.707Z,13.37
2023-04-08T22:44:30.040Z,12.87
2023-04-08T22:54:31.235Z,12.53
2023-04-08T22:59:24.682Z,12.83
2023-04-08T23:04:18.217Z,13.70
2023-04-08T23:14:20.377Z,14.43
2023-04-08T23:19:13.682Z,14.00
2023-04-08T23:34:22.274Z,13.40
2023-04-08T23:44:22.786Z,14.47
2023-04-08T23:49:16.184Z,13.97
2023-04-08T23:54:10.911Z,15.13
2023-04-08T23:59:04.323Z,15.43
